Terminal Aerodrome Forecast
Issued by NWS

Home | Current Version | Previous Version | Text Only | Print | Product List | Glossary On
Versions: 1 2 3 4 5 6 7 8 9 10 11 12
000
FTUS45 KPIH 031127
TAFSUN
TAF
KSUN 031127Z 0312/0412 31007KT P6SM BKN130
     FM031700 14007KT P6SM VCTS FEW070CB BKN110 BKN150
     FM031900 25015KT P6SM -SHRA VCTS SCT070CB BKN090 OVC130
     FM032100 26015G25KT P6SM VCTS SCT070CB BKN090 OVC130
     FM040200 31008KT P6SM VCSH SCT090 SCT130
      AMD LTD TO CLD VIS AND WIND TIL 031300=

USA.gov is the U.S. government's official web portal to all federal, state and local government web resources and services.